sensor_id;sensor_type;location;lat;lon;timestamp;pressure;altitude;pressure_sealevel;temperature;humidity
37078;BME280;22989;55.998;37.212;2023-04-08T00:00:53;-11298.94;;;-145.39;41.88
37078;BME280;22989;55.998;37.212;2023-04-08T00:03:19;-11298.94;;;-145.39;41.87
37078;BME280;22989;55.998;37.212;2023-04-08T00:05:44;-11298.94;;;-145.39;42.04
37078;BME280;22989;55.998;37.212;2023-04-08T00:08:10;-11298.94;;;-145.39;41.92
37078;BME280;22989;55.998;37.212;2023-04-08T00:10:36;-11298.94;;;-145.39;42.06
37078;BME280;22989;55.998;37.212;2023-04-08T00:13:01;-11298.94;;;-145.39;42.10
37078;BME280;22989;55.998;37.212;2023-04-08T00:15:27;-11298.94;;;-145.39;42.16
37078;BME280;22989;55.998;37.212;2023-04-08T00:17:52;-11298.94;;;-145.39;42.33
37078;BME280;22989;55.998;37.212;2023-04-08T00:20:21;-11298.94;;;-145.39;42.34
37078;BME280;22989;55.998;37.212;2023-04-08T00:22:47;-11298.94;;;-145.39;42.36
37078;BME280;22989;55.998;37.212;2023-04-08T00:25:12;-11298.94;;;-145.39;42.25
37078;BME280;22989;55.998;37.212;2023-04-08T00:27:38;-11298.94;;;-145.39;42.20
37078;BME280;22989;55.998;37.212;2023-04-08T00:30:03;-11298.94;;;-145.39;42.32
37078;BME280;22989;55.998;37.212;2023-04-08T00:32:30;-11298.94;;;-145.39;42.37
37078;BME280;22989;55.998;37.212;2023-04-08T00:34:56;-11298.94;;;-145.39;42.54
37078;BME280;22989;55.998;37.212;2023-04-08T00:37:21;-11298.94;;;-145.39;42.49
37078;BME280;22989;55.998;37.212;2023-04-08T00:39:47;-11298.94;;;-145.39;42.48
37078;BME280;22989;55.998;37.212;2023-04-08T00:42:12;-11298.94;;;-145.39;42.47
37078;BME280;22989;55.998;37.212;2023-04-08T00:44:38;-11298.94;;;-145.39;42.53
37078;BME280;22989;55.998;37.212;2023-04-08T00:47:03;-11298.94;;;-145.39;42.54
37078;BME280;22989;55.998;37.212;2023-04-08T00:49:29;-11298.94;;;-145.39;42.67
37078;BME280;22989;55.998;37.212;2023-04-08T00:51:55;-11298.94;;;-145.39;42.80
37078;BME280;22989;55.998;37.212;2023-04-08T00:54:20;-11298.94;;;-145.39;42.71
37078;BME280;22989;55.998;37.212;2023-04-08T00:56:46;-11298.94;;;-145.39;42.82
37078;BME280;22989;55.998;37.212;2023-04-08T00:59:12;-11298.94;;;-145.39;42.78
37078;BME280;22989;55.998;37.212;2023-04-08T01:01:43;-11298.94;;;-145.39;42.86
37078;BME280;22989;55.998;37.212;2023-04-08T01:04:27;-11298.94;;;-145.39;42.82
37078;BME280;22989;55.998;37.212;2023-04-08T01:09:38;-11298.94;;;-145.39;42.95
37078;BME280;22989;55.998;37.212;2023-04-08T01:12:09;-11298.94;;;-145.39;43.09
37078;BME280;22989;55.998;37.212;2023-04-08T01:14:41;-11298.94;;;-145.39;43.09
37078;BME280;22989;55.998;37.212;2023-04-08T01:17:08;-11298.94;;;-145.39;43.01
37078;BME280;22989;55.998;37.212;2023-04-08T01:19:35;-11298.94;;;-145.39;43.07
37078;BME280;22989;55.998;37.212;2023-04-08T01:22:26;-11298.94;;;-145.39;43.15
37078;BME280;22989;55.998;37.212;2023-04-08T01:24:49;-11298.94;;;-145.39;43.16
37078;BME280;22989;55.998;37.212;2023-04-08T01:27:17;-11298.94;;;-145.39;43.29
37078;BME280;22989;55.998;37.212;2023-04-08T01:29:43;-11298.94;;;-145.39;43.38
37078;BME280;22989;55.998;37.212;2023-04-08T01:32:09;-11298.94;;;-145.39;43.31
37078;BME280;22989;55.998;37.212;2023-04-08T01:34:36;-11298.94;;;-145.39;43.35
37078;BME280;22989;55.998;37.212;2023-04-08T01:37:02;-11298.94;;;-145.39;43.43
37078;BME280;22989;55.998;37.212;2023-04-08T01:39:28;-11298.94;;;-145.39;43.43
37078;BME280;22989;55.998;37.212;2023-04-08T01:41:54;-11298.94;;;-145.39;43.50
37078;BME280;22989;55.998;37.212;2023-04-08T01:44:20;-11298.94;;;-145.39;43.48
37078;BME280;22989;55.998;37.212;2023-04-08T01:46:46;-11298.94;;;-145.39;43.43
37078;BME280;22989;55.998;37.212;2023-04-08T01:49:13;-11298.94;;;-145.39;43.49
37078;BME280;22989;55.998;37.212;2023-04-08T01:51:39;-11298.94;;;-145.39;43.53
37078;BME280;22989;55.998;37.212;2023-04-08T01:54:05;-11298.94;;;-145.39;43.58
37078;BME280;22989;55.998;37.212;2023-04-08T01:56:31;-11298.94;;;-145.39;43.67
37078;BME280;22989;55.998;37.212;2023-04-08T01:58:59;-11298.94;;;-145.39;43.73
37078;BME280;22989;55.998;37.212;2023-04-08T02:01:25;-11298.94;;;-145.39;43.85
37078;BME280;22989;55.998;37.212;2023-04-08T02:03:54;-11298.94;;;-145.39;43.81
37078;BME280;22989;55.998;37.212;2023-04-08T02:06:22;-11298.94;;;-145.39;43.73
37078;BME280;22989;55.998;37.212;2023-04-08T02:08:48;-11298.94;;;-145.39;44.05
37078;BME280;22989;55.998;37.212;2023-04-08T02:11:13;-11298.94;;;-145.39;43.97
37078;BME280;22989;55.998;37.212;2023-04-08T02:13:39;-11298.94;;;-145.39;44.03
37078;BME280;22989;55.998;37.212;2023-04-08T02:18:46;-11298.94;;;-145.39;44.22
37078;BME280;22989;55.998;37.212;2023-04-08T02:21:16;-11298.94;;;-145.39;44.29
37078;BME280;22989;55.998;37.212;2023-04-08T02:23:44;-11298.94;;;-145.39;44.46
37078;BME280;22989;55.998;37.212;2023-04-08T02:26:13;-11298.94;;;-145.39;44.43
37078;BME280;22989;55.998;37.212;2023-04-08T02:28:39;-11298.94;;;-145.39;44.38
37078;BME280;22989;55.998;37.212;2023-04-08T02:31:09;-11298.94;;;-145.39;44.57
37078;BME280;22989;55.998;37.212;2023-04-08T02:33:42;-11298.94;;;-145.39;44.60
37078;BME280;22989;55.998;37.212;2023-04-08T02:36:08;-11298.94;;;-145.39;44.71
37078;BME280;22989;55.998;37.212;2023-04-08T02:38:35;-11298.94;;;-145.39;44.68
37078;BME280;22989;55.998;37.212;2023-04-08T02:41:01;-11298.94;;;-145.39;44.62
37078;BME280;22989;55.998;37.212;2023-04-08T02:43:27;-11298.94;;;-145.39;44.57
37078;BME280;22989;55.998;37.212;2023-04-08T02:45:59;-11298.94;;;-145.39;44.57
37078;BME280;22989;55.998;37.212;2023-04-08T02:48:28;-11298.94;;;-145.39;44.67
37078;BME280;22989;55.998;37.212;2023-04-08T02:50:53;-11298.94;;;-145.39;44.83
37078;BME280;22989;55.998;37.212;2023-04-08T02:53:21;-11298.94;;;-145.39;44.76
37078;BME280;22989;55.998;37.212;2023-04-08T02:55:46;-11298.94;;;-145.39;44.71
37078;BME280;22989;55.998;37.212;2023-04-08T02:58:12;-11298.94;;;-145.39;44.68
37078;BME280;22989;55.998;37.212;2023-04-08T03:00:37;-11298.94;;;-145.39;44.71
37078;BME280;22989;55.998;37.212;2023-04-08T03:03:04;-11298.94;;;-145.39;44.67
37078;BME280;22989;55.998;37.212;2023-04-08T03:05:30;-11298.94;;;-145.39;44.70
37078;BME280;22989;55.998;37.212;2023-04-08T03:07:56;-11298.94;;;-145.39;44.68
37078;BME280;22989;55.998;37.212;2023-04-08T03:10:21;-11298.94;;;-145.39;44.63
37078;BME280;22989;55.998;37.212;2023-04-08T03:12:46;-11298.94;;;-145.39;44.40
37078;BME280;22989;55.998;37.212;2023-04-08T03:15:12;-11298.94;;;-145.39;44.42
37078;BME280;22989;55.998;37.212;2023-04-08T03:17:37;-11298.94;;;-145.39;44.32
37078;BME280;22989;55.998;37.212;2023-04-08T03:20:03;-11298.94;;;-145.39;44.26
37078;BME280;22989;55.998;37.212;2023-04-08T03:22:29;-11298.94;;;-145.39;44.15
37078;BME280;22989;55.998;37.212;2023-04-08T03:24:54;-11298.94;;;-145.39;43.08
37078;BME280;22989;55.998;37.212;2023-04-08T03:27:20;-11298.94;;;-145.39;41.46
37078;BME280;22989;55.998;37.212;2023-04-08T03:29:45;-11298.94;;;-145.39;40.27
37078;BME280;22989;55.998;37.212;2023-04-08T03:32:11;-11298.94;;;-145.39;38.96
37078;BME280;22989;55.998;37.212;2023-04-08T03:34:36;-11298.94;;;-145.39;37.45
37078;BME280;22989;55.998;37.212;2023-04-08T03:37:02;-11298.94;;;-145.39;36.31
37078;BME280;22989;55.998;37.212;2023-04-08T03:39:27;-11298.94;;;-145.39;35.40
37078;BME280;22989;55.998;37.212;2023-04-08T03:41:52;-11298.94;;;-145.39;34.93
37078;BME280;22989;55.998;37.212;2023-04-08T03:44:18;-11298.94;;;-145.39;34.52
37078;BME280;22989;55.998;37.212;2023-04-08T03:46:43;-11298.94;;;-145.39;33.59
37078;BME280;22989;55.998;37.212;2023-04-08T03:49:09;-11298.94;;;-145.39;33.15
37078;BME280;22989;55.998;37.212;2023-04-08T03:51:34;-11298.94;;;-145.39;32.01
37078;BME280;22989;55.998;37.212;2023-04-08T03:54:00;-11298.94;;;-145.39;31.62
37078;BME280;22989;55.998;37.212;2023-04-08T03:56:25;-11298.94;;;-145.39;31.23
37078;BME280;22989;55.998;37.212;2023-04-08T03:58:50;-11298.94;;;-145.39;31.32
37078;BME280;22989;55.998;37.212;2023-04-08T04:01:16;-11298.94;;;-145.39;31.08
37078;BME280;22989;55.998;37.212;2023-04-08T04:03:41;-11298.94;;;-145.39;30.77
37078;BME280;22989;55.998;37.212;2023-04-08T04:06:07;-11298.94;;;-145.39;30.23
37078;BME280;22989;55.998;37.212;2023-04-08T04:08:32;-11298.94;;;-145.39;29.68
37078;BME280;22989;55.998;37.212;2023-04-08T04:10:58;-11298.94;;;-145.39;29.67
37078;BME280;22989;55.998;37.212;2023-04-08T04:13:24;-11298.94;;;-145.39;29.23
37078;BME280;22989;55.998;37.212;2023-04-08T04:15:49;-11298.94;;;-145.39;29.38
37078;BME280;22989;55.998;37.212;2023-04-08T04:18:14;-11298.94;;;-145.39;29.48
37078;BME280;22989;55.998;37.212;2023-04-08T04:20:40;-11298.94;;;-145.39;29.25
37078;BME280;22989;55.998;37.212;2023-04-08T04:23:06;-11298.94;;;-145.39;28.84
37078;BME280;22989;55.998;37.212;2023-04-08T04:25:32;-11298.94;;;-145.39;29.16
37078;BME280;22989;55.998;37.212;2023-04-08T04:27:57;-11298.94;;;-145.39;27.99
37078;BME280;22989;55.998;37.212;2023-04-08T04:30:23;-11298.94;;;-145.39;27.93
37078;BME280;22989;55.998;37.212;2023-04-08T04:32:48;-11298.94;;;-145.39;27.71
37078;BME280;22989;55.998;37.212;2023-04-08T04:35:14;-11298.94;;;-145.39;27.22
37078;BME280;22989;55.998;37.212;2023-04-08T04:37:39;-11298.94;;;-145.39;26.25
37078;BME280;22989;55.998;37.212;2023-04-08T04:40:05;-11298.94;;;-145.39;26.13
37078;BME280;22989;55.998;37.212;2023-04-08T04:42:30;-11298.94;;;-145.39;26.33
37078;BME280;22989;55.998;37.212;2023-04-08T04:44:56;-11298.94;;;-145.39;26.00
37078;BME280;22989;55.998;37.212;2023-04-08T04:47:21;-11298.94;;;-145.39;26.05
37078;BME280;22989;55.998;37.212;2023-04-08T04:49:47;-11298.94;;;-145.39;25.48
37078;BME280;22989;55.998;37.212;2023-04-08T04:52:12;-11298.94;;;-145.39;25.09
37078;BME280;22989;55.998;37.212;2023-04-08T04:54:38;-11298.94;;;-145.39;25.64
37078;BME280;22989;55.998;37.212;2023-04-08T04:57:03;-11298.94;;;-145.39;25.65
37078;BME280;22989;55.998;37.212;2023-04-08T04:59:29;-11298.94;;;-145.39;25.47
37078;BME280;22989;55.998;37.212;2023-04-08T05:01:55;-11298.94;;;-145.39;25.80
37078;BME280;22989;55.998;37.212;2023-04-08T05:04:22;-11298.94;;;-145.39;25.16
37078;BME280;22989;55.998;37.212;2023-04-08T05:06:47;-11298.94;;;-145.39;24.50
37078;BME280;22989;55.998;37.212;2023-04-08T05:09:13;-11298.94;;;-145.39;24.37
37078;BME280;22989;55.998;37.212;2023-04-08T05:11:38;-11298.94;;;-145.39;23.27
37078;BME280;22989;55.998;37.212;2023-04-08T05:14:03;-11298.94;;;-145.39;23.11
37078;BME280;22989;55.998;37.212;2023-04-08T05:16:29;-11298.94;;;-145.39;24.46
37078;BME280;22989;55.998;37.212;2023-04-08T05:18:54;-11298.94;;;-145.39;25.52
37078;BME280;22989;55.998;37.212;2023-04-08T05:21:20;-11298.94;;;-145.39;25.22
37078;BME280;22989;55.998;37.212;2023-04-08T05:23:45;-11298.94;;;-145.39;24.50
37078;BME280;22989;55.998;37.212;2023-04-08T05:26:11;-11298.94;;;-145.39;24.42
37078;BME280;22989;55.998;37.212;2023-04-08T05:28:36;-11298.94;;;-145.39;24.62
37078;BME280;22989;55.998;37.212;2023-04-08T05:31:02;-11298.94;;;-145.39;25.44
37078;BME280;22989;55.998;37.212;2023-04-08T05:33:27;-11298.94;;;-145.39;25.37
37078;BME280;22989;55.998;37.212;2023-04-08T05:35:52;-11298.94;;;-145.39;25.25
37078;BME280;22989;55.998;37.212;2023-04-08T05:38:18;-11298.94;;;-145.39;24.59
37078;BME280;22989;55.998;37.212;2023-04-08T05:40:43;-11298.94;;;-145.39;23.70
37078;BME280;22989;55.998;37.212;2023-04-08T05:43:09;-11298.94;;;-145.39;23.75
37078;BME280;22989;55.998;37.212;2023-04-08T05:45:34;-11298.94;;;-145.39;23.91
37078;BME280;22989;55.998;37.212;2023-04-08T05:48:00;-11298.94;;;-145.39;22.67
37078;BME280;22989;55.998;37.212;2023-04-08T05:50:25;-11298.94;;;-145.39;22.73
37078;BME280;22989;55.998;37.212;2023-04-08T05:52:51;-11298.94;;;-145.39;22.94
37078;BME280;22989;55.998;37.212;2023-04-08T05:55:16;-11298.94;;;-145.39;23.31
37078;BME280;22989;55.998;37.212;2023-04-08T05:57:42;-11298.94;;;-145.39;23.78
37078;BME280;22989;55.998;37.212;2023-04-08T06:00:08;-11298.94;;;-145.39;22.85
37078;BME280;22989;55.998;37.212;2023-04-08T06:02:35;-11298.94;;;-145.39;22.48
37078;BME280;22989;55.998;37.212;2023-04-08T06:05:01;-11298.94;;;-145.39;22.93
37078;BME280;22989;55.998;37.212;2023-04-08T06:07:28;-11298.94;;;-145.39;22.27
37078;BME280;22989;55.998;37.212;2023-04-08T06:09:53;-11298.94;;;-145.39;21.79
37078;BME280;22989;55.998;37.212;2023-04-08T06:12:18;-11298.94;;;-145.39;21.61
37078;BME280;22989;55.998;37.212;2023-04-08T06:14:44;-11298.94;;;-145.39;20.95
37078;BME280;22989;55.998;37.212;2023-04-08T06:17:10;-11298.94;;;-145.39;21.09
37078;BME280;22989;55.998;37.212;2023-04-08T06:19:36;-11298.94;;;-145.39;20.63
37078;BME280;22989;55.998;37.212;2023-04-08T06:22:01;-11298.94;;;-145.39;20.15
37078;BME280;22989;55.998;37.212;2023-04-08T06:24:27;-11298.94;;;-145.39;20.61
37078;BME280;22989;55.998;37.212;2023-04-08T06:26:53;-11298.94;;;-145.39;21.03
37078;BME280;22989;55.998;37.212;2023-04-08T06:29:22;-11298.94;;;-145.39;20.67
37078;BME280;22989;55.998;37.212;2023-04-08T06:31:48;-11298.94;;;-145.39;20.24
37078;BME280;22989;55.998;37.212;2023-04-08T06:34:13;-11298.94;;;-145.39;20.49
37078;BME280;22989;55.998;37.212;2023-04-08T06:36:39;-11298.94;;;-145.39;20.80
37078;BME280;22989;55.998;37.212;2023-04-08T06:39:04;-11298.94;;;-145.39;21.17
37078;BME280;22989;55.998;37.212;2023-04-08T06:41:30;-11298.94;;;-145.39;21.44
37078;BME280;22989;55.998;37.212;2023-04-08T06:44:01;-11298.94;;;-145.39;20.97
37078;BME280;22989;55.998;37.212;2023-04-08T06:46:27;-11298.94;;;-145.39;21.05
37078;BME280;22989;55.998;37.212;2023-04-08T06:48:52;-11298.94;;;-145.39;21.55
37078;BME280;22989;55.998;37.212;2023-04-08T06:51:18;-11298.94;;;-145.39;21.20
37078;BME280;22989;55.998;37.212;2023-04-08T06:53:43;-11298.94;;;-145.39;21.60
37078;BME280;22989;55.998;37.212;2023-04-08T06:56:09;-11298.94;;;-145.39;21.82
37078;BME280;22989;55.998;37.212;2023-04-08T06:58:35;-11298.94;;;-145.39;22.88
37078;BME280;22989;55.998;37.212;2023-04-08T07:01:00;-11298.94;;;-145.39;22.63
37078;BME280;22989;55.998;37.212;2023-04-08T07:03:27;-11298.94;;;-145.39;23.22
37078;BME280;22989;55.998;37.212;2023-04-08T07:05:52;-11298.94;;;-145.39;23.02
37078;BME280;22989;55.998;37.212;2023-04-08T07:08:18;-11298.94;;;-145.39;22.60
37078;BME280;22989;55.998;37.212;2023-04-08T07:10:43;-11298.94;;;-145.39;22.38
37078;BME280;22989;55.998;37.212;2023-04-08T07:13:09;-11298.94;;;-145.39;22.71
37078;BME280;22989;55.998;37.212;2023-04-08T07:15:35;-11298.94;;;-145.39;23.13
37078;BME280;22989;55.998;37.212;2023-04-08T07:18:00;-11298.94;;;-145.39;22.67
37078;BME280;22989;55.998;37.212;2023-04-08T07:20:26;-11298.94;;;-145.39;22.67
37078;BME280;22989;55.998;37.212;2023-04-08T07:22:51;-11298.94;;;-145.39;22.76
37078;BME280;22989;55.998;37.212;2023-04-08T07:25:17;-11298.94;;;-145.39;22.58
37078;BME280;22989;55.998;37.212;2023-04-08T07:27:42;-11298.94;;;-145.39;22.79
37078;BME280;22989;55.998;37.212;2023-04-08T07:30:08;-11298.94;;;-145.39;22.57
37078;BME280;22989;55.998;37.212;2023-04-08T07:32:33;-11298.94;;;-145.39;22.81
37078;BME280;22989;55.998;37.212;2023-04-08T07:34:59;-11298.94;;;-145.39;23.16
37078;BME280;22989;55.998;37.212;2023-04-08T07:37:25;-11298.94;;;-145.39;23.16
37078;BME280;22989;55.998;37.212;2023-04-08T07:39:50;-11298.94;;;-145.39;24.22
37078;BME280;22989;55.998;37.212;2023-04-08T07:42:16;-11298.94;;;-145.39;24.96
37078;BME280;22989;55.998;37.212;2023-04-08T07:44:42;-11298.94;;;-145.39;25.82
37078;BME280;22989;55.998;37.212;2023-04-08T07:47:08;-11298.94;;;-145.39;26.56
37078;BME280;22989;55.998;37.212;2023-04-08T07:49:33;-11298.94;;;-145.39;27.20
37078;BME280;22989;55.998;37.212;2023-04-08T07:51:58;-11298.94;;;-145.39;27.39
37078;BME280;22989;55.998;37.212;2023-04-08T07:54:24;-11298.94;;;-145.39;27.15
37078;BME280;22989;55.998;37.212;2023-04-08T07:56:49;-11298.94;;;-145.39;27.04
37078;BME280;22989;55.998;37.212;2023-04-08T07:59:15;-11298.94;;;-145.39;27.17
37078;BME280;22989;55.998;37.212;2023-04-08T08:01:40;-11298.94;;;-145.39;27.32
37078;BME280;22989;55.998;37.212;2023-04-08T08:04:06;-11298.94;;;-145.39;27.12
37078;BME280;22989;55.998;37.212;2023-04-08T08:06:31;-11298.94;;;-145.39;27.10
37078;BME280;22989;55.998;37.212;2023-04-08T08:08:57;-11298.94;;;-145.39;27.24
37078;BME280;22989;55.998;37.212;2023-04-08T08:11:22;-11298.94;;;-145.39;27.15
37078;BME280;22989;55.998;37.212;2023-04-08T08:13:48;-11298.94;;;-145.39;27.59
37078;BME280;22989;55.998;37.212;2023-04-08T08:16:13;-11298.94;;;-145.39;27.41
37078;BME280;22989;55.998;37.212;2023-04-08T08:18:39;-11298.94;;;-145.39;27.71
37078;BME280;22989;55.998;37.212;2023-04-08T08:21:05;-11298.94;;;-145.39;27.97
37078;BME280;22989;55.998;37.212;2023-04-08T08:23:30;-11298.94;;;-145.39;28.25
37078;BME280;22989;55.998;37.212;2023-04-08T08:26:03;-11298.94;;;-145.39;28.32
37078;BME280;22989;55.998;37.212;2023-04-08T08:28:30;-11298.94;;;-145.39;28.63
37078;BME280;22989;55.998;37.212;2023-04-08T08:30:56;-11298.94;;;-145.39;28.58
37078;BME280;22989;55.998;37.212;2023-04-08T08:33:21;-11298.94;;;-145.39;28.46
37078;BME280;22989;55.998;37.212;2023-04-08T08:35:47;-11298.94;;;-145.39;28.28
37078;BME280;22989;55.998;37.212;2023-04-08T08:38:12;-11298.94;;;-145.39;28.37
37078;BME280;22989;55.998;37.212;2023-04-08T08:40:38;-11298.94;;;-145.39;28.71
37078;BME280;22989;55.998;37.212;2023-04-08T08:43:03;-11298.94;;;-145.39;28.75
37078;BME280;22989;55.998;37.212;2023-04-08T08:45:29;-11298.94;;;-145.39;28.78
37078;BME280;22989;55.998;37.212;2023-04-08T08:47:55;-11298.94;;;-145.39;28.33
37078;BME280;22989;55.998;37.212;2023-04-08T08:50:20;-11298.94;;;-145.39;28.40
37078;BME280;22989;55.998;37.212;2023-04-08T08:52:49;-11298.94;;;-145.39;28.53
37078;BME280;22989;55.998;37.212;2023-04-08T08:55:18;-11298.94;;;-145.39;28.51
37078;BME280;22989;55.998;37.212;2023-04-08T08:57:44;-11298.94;;;-145.39;27.96
37078;BME280;22989;55.998;37.212;2023-04-08T09:00:10;-11298.94;;;-145.39;27.79
37078;BME280;22989;55.998;37.212;2023-04-08T09:02:37;-11298.94;;;-145.39;27.43
37078;BME280;22989;55.998;37.212;2023-04-08T09:05:03;-11298.94;;;-145.39;27.25
37078;BME280;22989;55.998;37.212;2023-04-08T09:07:35;-11298.94;;;-145.39;27.39
37078;BME280;22989;55.998;37.212;2023-04-08T09:10:01;-11298.94;;;-145.39;27.53
37078;BME280;22989;55.998;37.212;2023-04-08T09:12:27;-11298.94;;;-145.39;27.57
37078;BME280;22989;55.998;37.212;2023-04-08T09:15:08;-11298.94;;;-145.39;27.58
37078;BME280;22989;55.998;37.212;2023-04-08T09:17:37;-11298.94;;;-145.39;27.49
37078;BME280;22989;55.998;37.212;2023-04-08T09:20:09;-11298.94;;;-145.39;26.99
37078;BME280;22989;55.998;37.212;2023-04-08T09:22:58;-11298.94;;;-145.39;27.91
37078;BME280;22989;55.998;37.212;2023-04-08T09:25:22;-11298.94;;;-145.39;28.14
37078;BME280;22989;55.998;37.212;2023-04-08T09:27:48;-11298.94;;;-145.39;28.08
37078;BME280;22989;55.998;37.212;2023-04-08T09:30:14;-11298.94;;;-145.39;27.78
37078;BME280;22989;55.998;37.212;2023-04-08T09:32:46;-11298.94;;;-145.39;27.50
37078;BME280;22989;55.998;37.212;2023-04-08T09:35:12;-11298.94;;;-145.39;26.83
37078;BME280;22989;55.998;37.212;2023-04-08T09:37:38;-11298.94;;;-145.39;26.75
37078;BME280;22989;55.998;37.212;2023-04-08T09:40:03;-11298.94;;;-145.39;26.86
37078;BME280;22989;55.998;37.212;2023-04-08T09:42:29;-11298.94;;;-145.39;27.27
37078;BME280;22989;55.998;37.212;2023-04-08T09:44:55;-11298.94;;;-145.39;27.62
37078;BME280;22989;55.998;37.212;2023-04-08T09:47:22;-11298.94;;;-145.39;27.88
37078;BME280;22989;55.998;37.212;2023-04-08T09:49:57;-11298.94;;;-145.39;28.04
37078;BME280;22989;55.998;37.212;2023-04-08T09:52:31;-11298.94;;;-145.39;28.36
37078;BME280;22989;55.998;37.212;2023-04-08T09:55:01;-11298.94;;;-145.39;28.05
37078;BME280;22989;55.998;37.212;2023-04-08T09:57:43;-11298.94;;;-145.39;28.09
37078;BME280;22989;55.998;37.212;2023-04-08T10:00:14;-11298.94;;;-145.39;28.00
37078;BME280;22989;55.998;37.212;2023-04-08T10:05:15;-11298.94;;;-145.39;27.78
37078;BME280;22989;55.998;37.212;2023-04-08T10:07:41;-11298.94;;;-145.39;27.83
37078;BME280;22989;55.998;37.212;2023-04-08T10:10:07;-11298.94;;;-145.39;27.44
37078;BME280;22989;55.998;37.212;2023-04-08T10:12:35;-11298.94;;;-145.39;27.68
37078;BME280;22989;55.998;37.212;2023-04-08T10:17:45;-11298.94;;;-145.39;28.19
37078;BME280;22989;55.998;37.212;2023-04-08T10:20:39;-11298.94;;;-145.39;28.08
37078;BME280;22989;55.998;37.212;2023-04-08T10:22:56;-11298.94;;;-145.39;27.99
37078;BME280;22989;55.998;37.212;2023-04-08T10:25:35;-11298.94;;;-145.39;27.80
37078;BME280;22989;55.998;37.212;2023-04-08T10:28:01;-11298.94;;;-145.39;27.82
37078;BME280;22989;55.998;37.212;2023-04-08T10:30:47;-11298.94;;;-145.39;28.19
37078;BME280;22989;55.998;37.212;2023-04-08T10:33:17;-11298.94;;;-145.39;28.14
37078;BME280;22989;55.998;37.212;2023-04-08T10:35:46;-11298.94;;;-145.39;28.35
37078;BME280;22989;55.998;37.212;2023-04-08T10:38:12;-11298.94;;;-145.39;28.39
37078;BME280;22989;55.998;37.212;2023-04-08T10:40:38;-11298.94;;;-145.39;28.28
37078;BME280;22989;55.998;37.212;2023-04-08T10:43:06;-11298.94;;;-145.39;27.98
37078;BME280;22989;55.998;37.212;2023-04-08T10:45:31;-11298.94;;;-145.39;27.97
37078;BME280;22989;55.998;37.212;2023-04-08T10:48:10;-11298.94;;;-145.39;27.86
37078;BME280;22989;55.998;37.212;2023-04-08T10:50:35;-11298.94;;;-145.39;27.76
37078;BME280;22989;55.998;37.212;2023-04-08T10:53:01;-11298.94;;;-145.39;27.35
37078;BME280;22989;55.998;37.212;2023-04-08T10:55:26;-11298.94;;;-145.39;27.30
37078;BME280;22989;55.998;37.212;2023-04-08T10:57:53;-11298.94;;;-145.39;27.35
37078;BME280;22989;55.998;37.212;2023-04-08T11:00:37;-11298.94;;;-145.39;27.32
37078;BME280;22989;55.998;37.212;2023-04-08T11:03:03;-11298.94;;;-145.39;27.18
37078;BME280;22989;55.998;37.212;2023-04-08T11:05:30;-11298.94;;;-145.39;27.21
37078;BME280;22989;55.998;37.212;2023-04-08T11:07:56;-11298.94;;;-145.39;27.32
37078;BME280;22989;55.998;37.212;2023-04-08T11:10:22;-11298.94;;;-145.39;27.21
37078;BME280;22989;55.998;37.212;2023-04-08T11:12:48;-11298.94;;;-145.39;27.12
37078;BME280;22989;55.998;37.212;2023-04-08T11:15:14;-11298.94;;;-145.39;27.10
37078;BME280;22989;55.998;37.212;2023-04-08T11:17:40;-11298.94;;;-145.39;27.00
37078;BME280;22989;55.998;37.212;2023-04-08T11:20:06;-11298.94;;;-145.39;26.55
37078;BME280;22989;55.998;37.212;2023-04-08T11:22:32;-11298.94;;;-145.39;26.36
37078;BME280;22989;55.998;37.212;2023-04-08T11:24:58;-11298.94;;;-145.39;26.80
37078;BME280;22989;55.998;37.212;2023-04-08T11:27:24;-11298.94;;;-145.39;26.94
37078;BME280;22989;55.998;37.212;2023-04-08T11:29:51;-11298.94;;;-145.39;26.70
37078;BME280;22989;55.998;37.212;2023-04-08T11:32:16;-11298.94;;;-145.39;27.13
37078;BME280;22989;55.998;37.212;2023-04-08T11:34:43;-11298.94;;;-145.39;27.34
37078;BME280;22989;55.998;37.212;2023-04-08T11:37:08;-11298.94;;;-145.39;26.95
37078;BME280;22989;55.998;37.212;2023-04-08T11:39:33;-11298.94;;;-145.39;27.04
37078;BME280;22989;55.998;37.212;2023-04-08T11:42:04;-11298.94;;;-145.39;27.02
37078;BME280;22989;55.998;37.212;2023-04-08T11:44:30;-11298.94;;;-145.39;27.07
37078;BME280;22989;55.998;37.212;2023-04-08T11:46:56;-11298.94;;;-145.39;26.21
37078;BME280;22989;55.998;37.212;2023-04-08T11:49:22;-11298.94;;;-145.39;26.42
37078;BME280;22989;55.998;37.212;2023-04-08T11:51:58;-11298.94;;;-145.39;26.13
37078;BME280;22989;55.998;37.212;2023-04-08T11:54:25;-11298.94;;;-145.39;26.75
37078;BME280;22989;55.998;37.212;2023-04-08T11:56:51;-11298.94;;;-145.39;26.50
37078;BME280;22989;55.998;37.212;2023-04-08T11:59:17;-11298.94;;;-145.39;26.38
37078;BME280;22989;55.998;37.212;2023-04-08T12:01:43;-11298.94;;;-145.39;26.49
37078;BME280;22989;55.998;37.212;2023-04-08T12:04:09;-11298.94;;;-145.39;26.90
37078;BME280;22989;55.998;37.212;2023-04-08T12:06:35;-11298.94;;;-145.39;26.82
37078;BME280;22989;55.998;37.212;2023-04-08T12:09:00;-11298.94;;;-145.39;26.70
37078;BME280;22989;55.998;37.212;2023-04-08T12:11:26;-11298.94;;;-145.39;26.73
37078;BME280;22989;55.998;37.212;2023-04-08T12:13:51;-11298.94;;;-145.39;26.80
37078;BME280;22989;55.998;37.212;2023-04-08T12:16:17;-11298.94;;;-145.39;26.98
37078;BME280;22989;55.998;37.212;2023-04-08T12:18:43;-11298.94;;;-145.39;26.87
37078;BME280;22989;55.998;37.212;2023-04-08T12:21:08;-11298.94;;;-145.39;26.92
37078;BME280;22989;55.998;37.212;2023-04-08T12:23:34;-11298.94;;;-145.39;26.75
37078;BME280;22989;55.998;37.212;2023-04-08T12:25:59;-11298.94;;;-145.39;26.75
37078;BME280;22989;55.998;37.212;2023-04-08T12:28:25;-11298.94;;;-145.39;26.70